Time;durP1;ratioP1;P1;durP2;ratioP2;P2;SDS_P1;SDS_P2;PMS_P1;PMS_P2;Temp;Humidity;BMP_temperature;BMP_pressure;BME280_temperature;BME280_humidity;BME280_pressure;Samples;Min_cycle;Max_cycle;Signal;HPM_P1;HPM_P2
2022/03/31 00:02:13;;;;;;;7.75;3.90;;;;;;;;;;5035169;28;20041;-67
2022/03/31 00:04:39;;;;;;;6.15;3.63;;;;;;;;;;5035448;28;20312;-67
2022/03/31 00:07:06;;;;;;;10.00;4.60;;;;;;;;;;5029454;28;20049;-67
2022/03/31 00:09:32;;;;;;;6.80;4.40;;;;;;;;;;5039146;28;20438;-67
2022/03/31 00:11:59;;;;;;;5.90;4.18;;;;;;;;;;5038557;28;20048;-67
2022/03/31 00:14:26;;;;;;;6.50;3.70;;;;;;;;;;5031604;28;20056;-66
2022/03/31 00:16:53;;;;;;;9.05;5.38;;;;;;;;;;5035798;28;20060;-66
2022/03/31 00:19:19;;;;;;;9.63;5.10;;;;;;;;;;5023660;28;20430;-67
2022/03/31 00:21:45;;;;;;;6.85;5.05;;;;;;;;;;5037552;28;20446;-66
2022/03/31 00:24:12;;;;;;;8.02;4.82;;;;;;;;;;5028148;28;20477;-66
2022/03/31 00:26:38;;;;;;;8.68;4.80;;;;;;;;;;5034930;28;20044;-67
2022/03/31 00:29:05;;;;;;;8.50;5.32;;;;;;;;;;5026134;28;20675;-66
2022/03/31 00:31:31;;;;;;;7.85;4.93;;;;;;;;;;5036921;28;20072;-66
2022/03/31 00:33:57;;;;;;;7.32;4.82;;;;;;;;;;5037072;28;20096;-66
2022/03/31 00:36:24;;;;;;;6.75;4.82;;;;;;;;;;5030769;28;20049;-66
2022/03/31 00:41:36;;;;;;;7.47;5.40;;;;;;;;;;5023049;28;20049;-66
2022/03/31 00:44:02;;;;;;;8.13;5.72;;;;;;;;;;5036468;28;20052;-66
2022/03/31 00:46:28;;;;;;;10.52;6.43;;;;;;;;;;5025540;28;20038;-67
2022/03/31 00:48:55;;;;;;;8.95;5.53;;;;;;;;;;5033145;28;20049;-66
2022/03/31 00:51:21;;;;;;;9.93;5.53;;;;;;;;;;5035951;28;20516;-66
2022/03/31 00:53:47;;;;;;;8.48;5.85;;;;;;;;;;5025147;28;20214;-67
2022/03/31 00:56:16;;;;;;;7.32;5.43;;;;;;;;;;5029583;28;20057;-66
2022/03/31 00:58:43;;;;;;;8.10;5.63;;;;;;;;;;5027022;28;20042;-66
2022/03/31 01:01:11;;;;;;;8.38;5.90;;;;;;;;;;5037244;28;20068;-67
2022/03/31 01:03:38;;;;;;;8.60;5.57;;;;;;;;;;5026973;28;20991;-65
2022/03/31 01:06:05;;;;;;;9.23;6.35;;;;;;;;;;5037955;28;20067;-67
2022/03/31 01:08:32;;;;;;;9.50;6.15;;;;;;;;;;5034799;28;20037;-69
2022/03/31 01:10:58;;;;;;;7.68;5.22;;;;;;;;;;5028372;28;20045;-67
2022/03/31 01:13:24;;;;;;;9.85;5.95;;;;;;;;;;5038272;28;20056;-67
2022/03/31 01:15:51;;;;;;;10.25;5.97;;;;;;;;;;5025127;28;20469;-66
2022/03/31 01:18:17;;;;;;;9.63;6.20;;;;;;;;;;5034114;28;20056;-65
2022/03/31 01:20:43;;;;;;;7.95;4.57;;;;;;;;;;5040808;28;20051;-65
2022/03/31 01:23:11;;;;;;;9.52;6.10;;;;;;;;;;5032987;28;20064;-66
2022/03/31 01:25:37;;;;;;;9.82;5.63;;;;;;;;;;5047828;28;20060;-67
2022/03/31 01:28:03;;;;;;;10.43;6.32;;;;;;;;;;5039682;28;20428;-66
2022/03/31 01:30:30;;;;;;;11.35;6.05;;;;;;;;;;5059139;28;20045;-66
2022/03/31 01:32:56;;;;;;;9.88;5.97;;;;;;;;;;5041128;28;20053;-66
2022/03/31 01:35:23;;;;;;;8.73;6.35;;;;;;;;;;5042809;28;20052;-66
2022/03/31 01:37:50;;;;;;;10.30;6.50;;;;;;;;;;5045149;28;20061;-66
2022/03/31 01:40:16;;;;;;;13.05;7.65;;;;;;;;;;5050591;28;20056;-66
2022/03/31 01:42:43;;;;;;;12.38;7.30;;;;;;;;;;5048129;28;20068;-66
2022/03/31 01:45:11;;;;;;;9.77;6.57;;;;;;;;;;5043210;28;20837;-66
2022/03/31 01:47:37;;;;;;;11.27;6.55;;;;;;;;;;5035846;28;20051;-66
2022/03/31 01:50:04;;;;;;;11.98;6.50;;;;;;;;;;5028049;28;20049;-66
2022/03/31 01:52:31;;;;;;;11.07;6.53;;;;;;;;;;5051791;28;20059;-66
2022/03/31 01:54:57;;;;;;;12.48;6.68;;;;;;;;;;5050909;28;20414;-66
2022/03/31 01:57:23;;;;;;;9.38;5.70;;;;;;;;;;5038398;28;20041;-66
2022/03/31 01:59:50;;;;;;;10.55;6.45;;;;;;;;;;5044062;28;20037;-66
2022/03/31 02:02:16;;;;;;;7.50;5.07;;;;;;;;;;5032416;28;20053;-66
2022/03/31 02:04:43;;;;;;;6.78;4.68;;;;;;;;;;5043554;28;20041;-66
2022/03/31 02:07:10;;;;;;;7.65;4.80;;;;;;;;;;5033221;28;20045;-66
2022/03/31 02:09:36;;;;;;;10.07;4.50;;;;;;;;;;5054796;28;20409;-66
2022/03/31 02:12:03;;;;;;;7.05;4.30;;;;;;;;;;5047204;28;20045;-66
2022/03/31 02:14:30;;;;;;;4.82;3.35;;;;;;;;;;5034656;28;20048;-66
2022/03/31 02:16:56;;;;;;;4.13;3.10;;;;;;;;;;5038489;28;20771;-66
2022/03/31 02:19:24;;;;;;;4.97;3.08;;;;;;;;;;5034901;28;20037;-66
2022/03/31 02:21:50;;;;;;;4.82;3.13;;;;;;;;;;5045752;28;20492;-66
2022/03/31 02:24:17;;;;;;;6.15;2.75;;;;;;;;;;5040698;28;20071;-67
2022/03/31 02:26:43;;;;;;;4.20;2.38;;;;;;;;;;5035480;28;20037;-66
2022/03/31 02:29:12;;;;;;;5.82;3.20;;;;;;;;;;5031994;28;20045;-66
2022/03/31 02:31:46;;;;;;;4.25;2.60;;;;;;;;;;5032568;28;20053;-66
2022/03/31 02:34:14;;;;;;;3.75;2.40;;;;;;;;;;5048112;28;20044;-66
2022/03/31 02:36:40;;;;;;;4.18;2.28;;;;;;;;;;5032281;28;20041;-66
2022/03/31 02:39:07;;;;;;;4.78;2.70;;;;;;;;;;5040245;28;20379;-66
2022/03/31 02:41:35;;;;;;;4.32;2.33;;;;;;;;;;5037942;28;20037;-66
2022/03/31 02:44:02;;;;;;;4.53;2.50;;;;;;;;;;5041357;28;20052;-66
2022/03/31 02:46:29;;;;;;;3.38;2.42;;;;;;;;;;5042043;28;20044;-66
2022/03/31 02:48:55;;;;;;;3.42;2.20;;;;;;;;;;5037719;28;20500;-66
2022/03/31 02:51:22;;;;;;;3.10;2.20;;;;;;;;;;5060290;28;20048;-66
2022/03/31 02:56:34;;;;;;;3.33;2.20;;;;;;;;;;5043579;28;20044;-66
2022/03/31 02:59:00;;;;;;;2.80;2.05;;;;;;;;;;5026725;28;20052;-66
2022/03/31 03:01:27;;;;;;;3.00;1.95;;;;;;;;;;5055636;28;20044;-66
2022/03/31 03:03:54;;;;;;;4.38;2.47;;;;;;;;;;5053287;28;20111;-67
2022/03/31 03:06:21;;;;;;;4.15;2.28;;;;;;;;;;5043440;28;20044;-66
2022/03/31 03:08:47;;;;;;;3.28;1.80;;;;;;;;;;5050415;28;20067;-67
2022/03/31 03:11:15;;;;;;;2.70;1.88;;;;;;;;;;5038698;28;20116;-66
2022/03/31 03:13:42;;;;;;;3.10;1.88;;;;;;;;;;5042267;28;20056;-66
2022/03/31 03:16:09;;;;;;;2.45;1.48;;;;;;;;;;5034639;28;20058;-66
2022/03/31 03:18:35;;;;;;;2.15;1.70;;;;;;;;;;5039462;28;20722;-66
2022/03/31 03:21:04;;;;;;;2.95;1.90;;;;;;;;;;5050807;28;20473;-66
2022/03/31 03:23:31;;;;;;;2.38;1.83;;;;;;;;;;5048253;28;20457;-66
2022/03/31 03:25:57;;;;;;;3.92;1.90;;;;;;;;;;5041220;28;20099;-66
2022/03/31 03:28:23;;;;;;;2.78;1.67;;;;;;;;;;5026323;28;20041;-66
2022/03/31 03:30:50;;;;;;;1.50;1.38;;;;;;;;;;5045317;28;20627;-67
2022/03/31 03:33:16;;;;;;;2.13;1.60;;;;;;;;;;5041035;28;20045;-67
2022/03/31 03:35:43;;;;;;;2.20;1.50;;;;;;;;;;5046670;28;20067;-66
2022/03/31 03:38:09;;;;;;;1.90;1.48;;;;;;;;;;5044792;28;20056;-68
2022/03/31 03:40:37;;;;;;;2.58;1.35;;;;;;;;;;5022367;28;20494;-67
2022/03/31 03:43:04;;;;;;;2.17;1.58;;;;;;;;;;5041960;28;20056;-66
2022/03/31 03:45:30;;;;;;;3.55;1.63;;;;;;;;;;5041079;28;20061;-66
2022/03/31 03:47:58;;;;;;;2.15;1.50;;;;;;;;;;5040319;28;20683;-66
2022/03/31 03:50:25;;;;;;;2.40;1.52;;;;;;;;;;5034284;28;20506;-66
2022/03/31 03:52:52;;;;;;;2.45;1.70;;;;;;;;;;5044158;28;20050;-66
2022/03/31 03:55:18;;;;;;;3.10;1.75;;;;;;;;;;5032676;28;20054;-66
2022/03/31 03:57:44;;;;;;;1.83;1.55;;;;;;;;;;5041416;28;20068;-66
2022/03/31 04:00:11;;;;;;;2.50;1.42;;;;;;;;;;5039527;28;20421;-66
2022/03/31 04:02:38;;;;;;;2.47;1.38;;;;;;;;;;5032201;28;20054;-66
2022/03/31 04:05:05;;;;;;;2.58;1.60;;;;;;;;;;5031239;28;20422;-66
2022/03/31 04:07:32;;;;;;;2.20;1.35;;;;;;;;;;5021116;28;20049;-66
2022/03/31 04:09:58;;;;;;;3.13;1.50;;;;;;;;;;5044414;28;20477;-66
2022/03/31 04:12:24;;;;;;;1.40;1.30;;;;;;;;;;5047727;28;20048;-66
2022/03/31 04:14:51;;;;;;;4.32;1.80;;;;;;;;;;5036869;28;20049;-66
2022/03/31 04:17:17;;;;;;;2.63;1.58;;;;;;;;;;5046972;28;20072;-66
2022/03/31 04:19:44;;;;;;;3.28;1.55;;;;;;;;;;5037521;28;20056;-66
2022/03/31 04:22:10;;;;;;;3.05;2.03;;;;;;;;;;5045767;28;20049;-66
2022/03/31 04:24:36;;;;;;;2.35;1.67;;;;;;;;;;5034423;28;20049;-66
2022/03/31 04:27:03;;;;;;;4.15;2.30;;;;;;;;;;5058746;28;20045;-66
2022/03/31 04:29:29;;;;;;;2.60;1.52;;;;;;;;;;5050012;28;20552;-66
2022/03/31 04:31:55;;;;;;;3.70;2.25;;;;;;;;;;5044969;28;20049;-66
2022/03/31 04:34:22;;;;;;;3.45;2.08;;;;;;;;;;5051553;28;20036;-66
2022/03/31 04:36:48;;;;;;;4.13;2.03;;;;;;;;;;5035200;28;20348;-66
2022/03/31 04:39:15;;;;;;;2.50;1.60;;;;;;;;;;5046479;28;20044;-66
2022/03/31 04:41:42;;;;;;;2.40;1.77;;;;;;;;;;5038324;28;20045;-66
2022/03/31 04:44:08;;;;;;;1.92;1.42;;;;;;;;;;5047090;28;20132;-66
2022/03/31 04:46:35;;;;;;;2.72;1.73;;;;;;;;;;5047598;28;20045;-66
2022/03/31 04:49:02;;;;;;;2.40;1.75;;;;;;;;;;5033847;28;20093;-66
2022/03/31 04:51:28;;;;;;;3.20;1.70;;;;;;;;;;5020145;28;20445;-66
2022/03/31 04:53:54;;;;;;;2.22;1.58;;;;;;;;;;5042313;28;20417;-66
2022/03/31 04:56:21;;;;;;;1.98;1.42;;;;;;;;;;5040065;28;20045;-66
2022/03/31 04:58:48;;;;;;;1.35;1.17;;;;;;;;;;5044484;28;20298;-66
2022/03/31 05:01:16;;;;;;;1.83;1.02;;;;;;;;;;5035081;28;20049;-66
2022/03/31 05:03:48;;;;;;;1.40;1.20;;;;;;;;;;5036112;28;20057;-66
2022/03/31 05:06:15;;;;;;;1.10;1.00;;;;;;;;;;5035678;28;20715;-66
2022/03/31 05:08:42;;;;;;;1.50;1.40;;;;;;;;;;5048169;28;20056;-67
2022/03/31 05:11:08;;;;;;;1.20;1.10;;;;;;;;;;5031907;28;20049;-66
2022/03/31 05:13:34;;;;;;;1.27;1.17;;;;;;;;;;5032235;28;20048;-67
2022/03/31 05:16:02;;;;;;;1.23;1.10;;;;;;;;;;5026298;28;20048;-68
2022/03/31 05:18:28;;;;;;;1.52;1.30;;;;;;;;;;5027722;28;20076;-66
2022/03/31 05:20:54;;;;;;;1.50;1.13;;;;;;;;;;5051382;28;20048;-66
2022/03/31 05:23:27;;;;;;;1.20;1.10;;;;;;;;;;5040073;28;20056;-66
2022/03/31 05:25:53;;;;;;;1.40;1.20;;;;;;;;;;5053174;28;20486;-66
2022/03/31 05:28:19;;;;;;;2.22;1.40;;;;;;;;;;5040927;28;20406;-66
2022/03/31 05:30:46;;;;;;;1.77;1.40;;;;;;;;;;5036188;28;20053;-66
2022/03/31 05:33:12;;;;;;;1.65;1.30;;;;;;;;;;5030869;28;20048;-66
2022/03/31 05:35:38;;;;;;;1.90;1.45;;;;;;;;;;5043328;28;20052;-66
2022/03/31 05:38:05;;;;;;;1.80;1.45;;;;;;;;;;5046916;28;21624;-66
2022/03/31 05:40:32;;;;;;;4.35;1.70;;;;;;;;;;5052018;28;20077;-65
2022/03/31 05:42:58;;;;;;;1.52;1.23;;;;;;;;;;5043005;28;20053;-66
2022/03/31 05:45:25;;;;;;;2.70;1.73;;;;;;;;;;5030344;28;20056;-66
2022/03/31 05:47:52;;;;;;;3.05;1.77;;;;;;;;;;5041062;28;20064;-66
2022/03/31 05:50:19;;;;;;;2.45;1.58;;;;;;;;;;5044071;28;20498;-66
2022/03/31 05:52:45;;;;;;;2.45;1.60;;;;;;;;;;5044187;28;20438;-66
2022/03/31 05:55:14;;;;;;;2.28;1.45;;;;;;;;;;5045139;28;20049;-65
2022/03/31 05:57:40;;;;;;;2.13;1.70;;;;;;;;;;5044802;28;20486;-66
2022/03/31 06:00:11;;;;;;;2.03;1.40;;;;;;;;;;5042253;28;20048;-66
2022/03/31 06:02:38;;;;;;;2.63;1.83;;;;;;;;;;5038459;28;20049;-66
2022/03/31 06:05:15;;;;;;;2.08;1.60;;;;;;;;;;5032347;28;20408;-66
2022/03/31 06:07:41;;;;;;;2.35;1.70;;;;;;;;;;5036831;28;20483;-66
2022/03/31 06:10:08;;;;;;;3.35;1.60;;;;;;;;;;5044050;28;20494;-66
2022/03/31 06:12:34;;;;;;;3.38;1.77;;;;;;;;;;5043323;28;20037;-67
2022/03/31 06:15:01;;;;;;;2.00;1.60;;;;;;;;;;5022958;28;20050;-67
2022/03/31 06:17:28;;;;;;;2.13;1.63;;;;;;;;;;5042669;28;20437;-67
2022/03/31 06:19:54;;;;;;;1.90;1.58;;;;;;;;;;5036171;28;20517;-67
2022/03/31 06:22:20;;;;;;;3.60;2.10;;;;;;;;;;5052282;28;20056;-68
2022/03/31 06:24:47;;;;;;;3.50;2.10;;;;;;;;;;5033056;28;20592;-67
2022/03/31 06:27:13;;;;;;;2.15;1.60;;;;;;;;;;5043617;28;20453;-67
2022/03/31 06:29:40;;;;;;;4.60;1.95;;;;;;;;;;5047606;28;20414;-68
2022/03/31 06:32:07;;;;;;;3.23;1.50;;;;;;;;;;5038106;28;20049;-68
2022/03/31 06:34:36;;;;;;;1.75;1.40;;;;;;;;;;5048640;28;20069;-68
2022/03/31 06:37:02;;;;;;;1.73;1.35;;;;;;;;;;5042744;28;20049;-68
2022/03/31 06:39:29;;;;;;;1.42;1.17;;;;;;;;;;5053037;28;20048;-67
2022/03/31 06:41:55;;;;;;;1.65;1.33;;;;;;;;;;5032378;28;20056;-68
2022/03/31 06:44:22;;;;;;;1.58;1.48;;;;;;;;;;5042676;28;20060;-67
2022/03/31 06:46:48;;;;;;;1.70;1.30;;;;;;;;;;5044247;28;20045;-67
2022/03/31 06:49:14;;;;;;;1.33;1.20;;;;;;;;;;5042580;28;20053;-68
2022/03/31 06:51:43;;;;;;;1.33;1.20;;;;;;;;;;5059161;28;20041;-68
2022/03/31 06:54:09;;;;;;;1.17;1.05;;;;;;;;;;5039122;28;20040;-68
2022/03/31 06:56:36;;;;;;;3.63;1.70;;;;;;;;;;5041636;28;20044;-68
2022/03/31 06:59:02;;;;;;;2.03;1.30;;;;;;;;;;5038013;28;20406;-68
2022/03/31 07:01:28;;;;;;;2.97;1.20;;;;;;;;;;5038287;28;20048;-68
2022/03/31 07:03:55;;;;;;;2.00;1.20;;;;;;;;;;5054797;28;20132;-68
2022/03/31 07:06:23;;;;;;;1.98;1.45;;;;;;;;;;5036028;28;20045;-68
2022/03/31 07:08:49;;;;;;;1.42;1.20;;;;;;;;;;5055603;28;20429;-67
2022/03/31 07:11:16;;;;;;;1.50;1.10;;;;;;;;;;5031630;28;20065;-68
2022/03/31 07:13:43;;;;;;;1.80;1.30;;;;;;;;;;5050787;28;20057;-68
2022/03/31 07:16:09;;;;;;;2.08;1.10;;;;;;;;;;5042339;28;20075;-67
2022/03/31 07:18:36;;;;;;;1.30;1.20;;;;;;;;;;5041291;28;20041;-68
2022/03/31 07:21:02;;;;;;;2.08;1.10;;;;;;;;;;5040181;28;20497;-69
2022/03/31 07:23:28;;;;;;;1.45;1.15;;;;;;;;;;5038692;28;20048;-69
2022/03/31 07:25:56;;;;;;;1.55;1.35;;;;;;;;;;5044264;28;20064;-67
2022/03/31 07:28:23;;;;;;;2.63;1.63;;;;;;;;;;5039680;28;20072;-67
2022/03/31 07:30:50;;;;;;;1.50;1.30;;;;;;;;;;5051910;28;20131;-69
2022/03/31 07:33:18;;;;;;;1.33;1.20;;;;;;;;;;5030440;28;20052;-69
2022/03/31 07:35:47;;;;;;;;;;;;;;;;;;5043668;28;20371;-66
2022/03/31 07:38:14;;;;;;;3.15;1.77;;;;;;;;;;5052044;28;19925;-66
2022/03/31 07:40:41;;;;;;;4.03;1.85;;;;;;;;;;5031566;28;20049;-69
2022/03/31 07:43:07;;;;;;;3.40;2.15;;;;;;;;;;5049972;28;20475;-69
2022/03/31 07:45:35;;;;;;;2.33;1.70;;;;;;;;;;5036293;28;20045;-69
2022/03/31 07:48:02;;;;;;;2.60;1.70;;;;;;;;;;5047058;28;20052;-68
2022/03/31 07:50:29;;;;;;;2.20;1.70;;;;;;;;;;5013249;28;20044;-69
2022/03/31 07:52:56;;;;;;;1.90;1.50;;;;;;;;;;5052012;28;20501;-69
2022/03/31 07:55:23;;;;;;;1.83;1.50;;;;;;;;;;5043495;28;20500;-69
2022/03/31 07:57:50;;;;;;;2.92;1.67;;;;;;;;;;5030526;28;20612;-69
2022/03/31 08:00:17;;;;;;;1.95;1.45;;;;;;;;;;5046912;28;20067;-68
2022/03/31 08:02:45;;;;;;;2.10;1.63;;;;;;;;;;5038584;28;20041;-68
2022/03/31 08:05:12;;;;;;;3.20;1.50;;;;;;;;;;5032536;28;20057;-66
2022/03/31 08:07:38;;;;;;;1.70;1.40;;;;;;;;;;5034872;28;20041;-66
2022/03/31 08:10:05;;;;;;;1.48;1.38;;;;;;;;;;5045201;28;20056;-68
2022/03/31 08:12:33;;;;;;;1.90;1.73;;;;;;;;;;5040835;28;20045;-68
2022/03/31 08:15:00;;;;;;;2.55;2.08;;;;;;;;;;5039991;28;20045;-68
2022/03/31 08:17:27;;;;;;;4.65;2.78;;;;;;;;;;5040494;28;20048;-66
2022/03/31 08:19:53;;;;;;;2.65;1.73;;;;;;;;;;5041148;28;20044;-68
2022/03/31 08:22:20;;;;;;;2.17;1.50;;;;;;;;;;5048015;28;20071;-68
2022/03/31 08:24:46;;;;;;;2.35;1.77;;;;;;;;;;5032441;28;20060;-68
2022/03/31 08:27:13;;;;;;;2.17;1.73;;;;;;;;;;5049496;28;20061;-69
2022/03/31 08:29:39;;;;;;;1.75;1.58;;;;;;;;;;5044833;28;20391;-68
2022/03/31 08:32:07;;;;;;;2.28;1.83;;;;;;;;;;5029964;28;20047;-69
2022/03/31 08:34:34;;;;;;;2.03;1.70;;;;;;;;;;5043935;28;20775;-68
2022/03/31 08:37:00;;;;;;;1.88;1.60;;;;;;;;;;5029573;28;20914;-68
2022/03/31 08:39:26;;;;;;;2.08;1.60;;;;;;;;;;5047164;28;20052;-68
2022/03/31 08:41:53;;;;;;;2.05;1.77;;;;;;;;;;5043070;28;20056;-69
2022/03/31 08:44:20;;;;;;;1.92;1.73;;;;;;;;;;5034307;28;20057;-68
2022/03/31 08:46:46;;;;;;;3.60;2.08;;;;;;;;;;5037970;28;20410;-67
2022/03/31 08:49:13;;;;;;;1.92;1.70;;;;;;;;;;5041365;28;20517;-68
2022/03/31 08:51:39;;;;;;;2.80;2.00;;;;;;;;;;5054031;28;20051;-67
2022/03/31 08:54:05;;;;;;;2.70;2.00;;;;;;;;;;5031010;28;20144;-68
2022/03/31 08:56:32;;;;;;;2.60;2.10;;;;;;;;;;5041180;28;20486;-67
2022/03/31 08:59:18;;;;;;;3.55;2.47;;;;;;;;;;5029504;28;20045;-67
2022/03/31 09:01:45;;;;;;;2.53;2.17;;;;;;;;;;5040349;28;20052;-67
2022/03/31 09:04:20;;;;;;;2.78;2.22;;;;;;;;;;5031550;28;20053;-69
2022/03/31 09:06:47;;;;;;;2.10;1.90;;;;;;;;;;5038177;28;20049;-69
2022/03/31 09:09:16;;;;;;;2.60;2.20;;;;;;;;;;5038824;28;20059;-69
2022/03/31 09:11:44;;;;;;;;;;;;;;;;;;5026897;28;20128;-67
2022/03/31 09:14:15;;;;;;;3.10;2.22;;;;;;;;;;5038329;28;19931;-68
2022/03/31 09:16:43;;;;;;;2.42;2.22;;;;;;;;;;5040103;28;20060;-70
2022/03/31 09:19:10;;;;;;;2.83;2.25;;;;;;;;;;5045064;28;20607;-68
2022/03/31 09:22:00;;;;;;;3.17;2.60;;;;;;;;;;5030441;28;20133;-68
2022/03/31 09:24:27;;;;;;;3.80;2.35;;;;;;;;;;5025611;28;20048;-68
2022/03/31 09:26:54;;;;;;;3.03;2.40;;;;;;;;;;5036272;28;20048;-68
2022/03/31 09:29:24;;;;;;;3.83;1.95;;;;;;;;;;5039597;28;20083;-68
2022/03/31 09:31:54;;;;;;;3.15;2.38;;;;;;;;;;5055193;28;20057;-68
2022/03/31 09:34:21;;;;;;;2.90;2.28;;;;;;;;;;5045467;28;20052;-68
2022/03/31 09:36:48;;;;;;;3.20;2.55;;;;;;;;;;5051180;28;20057;-68
2022/03/31 09:39:17;;;;;;;2.65;2.20;;;;;;;;;;5035414;28;20049;-67
2022/03/31 09:41:50;;;;;;;3.92;2.20;;;;;;;;;;5018040;28;20056;-68
2022/03/31 09:44:18;;;;;;;3.25;2.15;;;;;;;;;;5031774;28;20135;-69
2022/03/31 09:46:45;;;;;;;2.80;2.47;;;;;;;;;;5055442;28;20047;-68
2022/03/31 09:49:11;;;;;;;3.42;2.30;;;;;;;;;;5042329;28;20084;-68
2022/03/31 09:51:38;;;;;;;3.22;2.72;;;;;;;;;;5037932;28;20155;-68
2022/03/31 09:54:05;;;;;;;4.53;2.60;;;;;;;;;;5038995;28;20494;-68
2022/03/31 09:56:33;;;;;;;3.85;2.72;;;;;;;;;;5035956;28;20056;-68
2022/03/31 09:59:01;;;;;;;3.50;2.72;;;;;;;;;;5033680;28;20513;-68
2022/03/31 10:01:28;;;;;;;3.43;2.77;;;;;;;;;;5037078;28;20053;-68
2022/03/31 10:03:56;;;;;;;4.22;3.08;;;;;;;;;;5041584;28;20293;-68
2022/03/31 10:06:24;;;;;;;4.38;2.80;;;;;;;;;;5035547;28;20046;-66
2022/03/31 10:08:51;;;;;;;3.73;2.37;;;;;;;;;;5041953;28;20052;-68
2022/03/31 10:11:19;;;;;;;3.58;2.67;;;;;;;;;;5045239;28;20381;-68
2022/03/31 10:13:50;;;;;;;3.33;2.70;;;;;;;;;;5043461;28;20139;-68
2022/03/31 10:16:19;;;;;;;3.22;2.60;;;;;;;;;;5036298;28;20454;-69
2022/03/31 10:18:47;;;;;;;3.10;2.60;;;;;;;;;;5039153;28;20577;-68
2022/03/31 10:21:24;;;;;;;2.70;2.35;;;;;;;;;;5048192;28;20052;-68
2022/03/31 10:26:36;;;;;;;3.17;2.30;;;;;;;;;;5043982;28;20514;-68
2022/03/31 10:29:10;;;;;;;2.78;2.45;;;;;;;;;;5043342;28;20049;-68
2022/03/31 10:31:38;;;;;;;3.38;2.33;;;;;;;;;;5043496;28;20410;-68
2022/03/31 10:34:05;;;;;;;3.50;2.55;;;;;;;;;;5038034;28;20049;-68
2022/03/31 10:36:39;;;;;;;3.97;2.53;;;;;;;;;;5019688;28;20052;-68
2022/03/31 10:39:15;;;;;;;2.97;2.50;;;;;;;;;;5039159;28;20057;-67
2022/03/31 10:41:43;;;;;;;2.75;2.30;;;;;;;;;;5030614;28;20050;-67
2022/03/31 10:44:13;;;;;;;2.63;2.20;;;;;;;;;;5040021;28;20602;-67
2022/03/31 10:46:40;;;;;;;2.95;2.20;;;;;;;;;;5038264;28;20041;-67
2022/03/31 10:49:12;;;;;;;2.83;2.17;;;;;;;;;;5039325;28;20053;-69
2022/03/31 10:51:40;;;;;;;2.95;2.47;;;;;;;;;;5040790;28;20076;-69
2022/03/31 10:54:09;;;;;;;2.20;2.00;;;;;;;;;;5037799;28;20132;-68
2022/03/31 10:56:35;;;;;;;3.28;2.22;;;;;;;;;;5046455;28;20044;-67
2022/03/31 10:59:03;;;;;;;3.15;2.20;;;;;;;;;;5040108;28;20434;-68
2022/03/31 11:01:31;;;;;;;3.55;2.30;;;;;;;;;;5044216;28;20048;-67
2022/03/31 11:04:01;;;;;;;2.28;2.08;;;;;;;;;;5048213;28;20050;-67
2022/03/31 11:06:29;;;;;;;2.40;2.20;;;;;;;;;;5040619;28;20045;-68
2022/03/31 11:08:55;;;;;;;2.22;1.90;;;;;;;;;;5047220;28;20052;-68
2022/03/31 11:11:29;;;;;;;2.75;2.20;;;;;;;;;;5043313;28;20068;-69
2022/03/31 11:13:57;;;;;;;2.80;2.00;;;;;;;;;;5049248;28;20048;-67
2022/03/31 11:16:33;;;;;;;3.22;2.20;;;;;;;;;;5026782;28;20057;-67
2022/03/31 11:19:04;;;;;;;2.55;1.90;;;;;;;;;;5026296;28;20061;-69
2022/03/31 11:21:38;;;;;;;2.05;1.80;;;;;;;;;;5042797;28;20107;-66
2022/03/31 11:24:05;;;;;;;2.85;2.10;;;;;;;;;;5027694;28;20061;-67
2022/03/31 11:26:34;;;;;;;2.10;1.50;;;;;;;;;;5051731;28;20052;-67
2022/03/31 11:29:00;;;;;;;;;;;;;;;;;;5029634;28;20053;-67
2022/03/31 11:31:27;;;;;;;1.92;1.73;;;;;;;;;;5040785;28;19924;-67
2022/03/31 11:33:55;;;;;;;1.95;1.67;;;;;;;;;;5033654;28;20052;-68
2022/03/31 11:36:23;;;;;;;2.30;1.90;;;;;;;;;;5041256;28;20045;-68
2022/03/31 11:38:59;;;;;;;2.53;1.90;;;;;;;;;;5035585;28;20433;-68
2022/03/31 11:41:35;;;;;;;1.80;1.70;;;;;;;;;;5043439;28;20057;-68
2022/03/31 11:44:18;;;;;;;2.17;1.88;;;;;;;;;;5053240;28;20136;-68
2022/03/31 11:46:49;;;;;;;3.33;2.10;;;;;;;;;;5037428;28;20399;-69
2022/03/31 11:49:26;;;;;;;2.97;1.90;;;;;;;;;;5039485;28;20367;-68
2022/03/31 11:51:53;;;;;;;1.92;1.67;;;;;;;;;;5039918;28;20069;-68
2022/03/31 11:54:20;;;;;;;2.40;2.00;;;;;;;;;;5025956;28;20413;-69
2022/03/31 11:57:02;;;;;;;1.65;1.55;;;;;;;;;;5044572;28;20048;-68
2022/03/31 11:59:29;;;;;;;1.90;1.55;;;;;;;;;;5035067;28;20072;-68
2022/03/31 12:01:56;;;;;;;1.90;1.70;;;;;;;;;;5034404;28;20053;-68
2022/03/31 12:04:24;;;;;;;1.52;1.42;;;;;;;;;;5047056;28;20402;-69
2022/03/31 12:06:51;;;;;;;1.90;1.45;;;;;;;;;;5047389;28;20052;-68
2022/03/31 12:09:18;;;;;;;1.55;1.38;;;;;;;;;;5026139;28;20053;-69
2022/03/31 12:11:47;;;;;;;1.60;1.50;;;;;;;;;;5053661;28;20055;-68
2022/03/31 12:14:13;;;;;;;1.70;1.60;;;;;;;;;;5024575;28;20061;-69
2022/03/31 12:16:43;;;;;;;2.42;1.80;;;;;;;;;;5044718;28;20037;-69
2022/03/31 12:19:09;;;;;;;2.88;1.58;;;;;;;;;;5034992;28;20053;-68
2022/03/31 12:21:44;;;;;;;1.70;1.52;;;;;;;;;;5045938;28;20068;-69
2022/03/31 12:24:12;;;;;;;2.13;1.75;;;;;;;;;;5057355;28;20056;-69
2022/03/31 12:26:59;;;;;;;1.70;1.60;;;;;;;;;;5032579;28;20049;-69
2022/03/31 12:29:26;;;;;;;1.60;1.50;;;;;;;;;;5041704;28;20063;-69
2022/03/31 12:32:04;;;;;;;1.90;1.55;;;;;;;;;;5034720;28;20069;-69
2022/03/31 12:34:31;;;;;;;2.15;1.65;;;;;;;;;;5039533;28;20084;-70
2022/03/31 12:36:57;;;;;;;3.13;1.60;;;;;;;;;;5048092;28;20053;-68
2022/03/31 12:39:23;;;;;;;1.40;1.30;;;;;;;;;;5049552;28;20043;-68
2022/03/31 12:41:52;;;;;;;1.70;1.48;;;;;;;;;;5029636;28;20064;-68
2022/03/31 12:44:21;;;;;;;2.63;1.58;;;;;;;;;;5050089;28;20052;-69
2022/03/31 12:46:51;;;;;;;2.08;1.60;;;;;;;;;;5052286;28;20059;-69
2022/03/31 12:49:19;;;;;;;2.55;1.98;;;;;;;;;;5033851;28;20068;-69
2022/03/31 12:51:49;;;;;;;1.67;1.43;;;;;;;;;;5045926;28;20139;-70
2022/03/31 12:54:23;;;;;;;1.70;1.48;;;;;;;;;;5042169;28;20288;-69
2022/03/31 12:56:50;;;;;;;1.98;1.45;;;;;;;;;;5051136;28;20044;-69
2022/03/31 12:59:21;;;;;;;1.73;1.40;;;;;;;;;;5040112;28;20055;-68
2022/03/31 13:02:13;;;;;;;2.08;1.40;;;;;;;;;;5053205;28;20057;-68
2022/03/31 13:04:44;;;;;;;2.05;1.65;;;;;;;;;;5034249;28;20048;-68
2022/03/31 13:07:11;;;;;;;1.52;1.40;;;;;;;;;;5044323;28;20044;-68
2022/03/31 13:09:38;;;;;;;1.90;1.60;;;;;;;;;;5043184;28;20055;-69
2022/03/31 13:12:09;;;;;;;2.33;1.50;;;;;;;;;;5036759;28;20053;-68
2022/03/31 13:14:36;;;;;;;1.38;1.25;;;;;;;;;;5055554;28;20050;-68
2022/03/31 13:17:04;;;;;;;1.80;1.50;;;;;;;;;;5040621;28;20052;-68
2022/03/31 13:19:31;;;;;;;1.83;1.60;;;;;;;;;;5051276;28;20063;-68
2022/03/31 13:21:58;;;;;;;4.70;2.72;;;;;;;;;;5030581;28;20064;-68
2022/03/31 13:24:24;;;;;;;2.30;1.80;;;;;;;;;;5036837;28;20045;-68
2022/03/31 13:26:50;;;;;;;1.42;1.20;;;;;;;;;;5032544;28;20056;-68
2022/03/31 13:29:17;;;;;;;2.00;1.70;;;;;;;;;;5032848;28;20065;-67
2022/03/31 13:31:46;;;;;;;1.30;1.20;;;;;;;;;;5045350;28;20045;-68
2022/03/31 13:34:13;;;;;;;1.50;1.40;;;;;;;;;;5044084;28;20084;-69
2022/03/31 13:36:39;;;;;;;1.73;1.38;;;;;;;;;;5035241;28;20045;-68
2022/03/31 13:39:10;;;;;;;1.40;1.30;;;;;;;;;;5038234;28;20041;-68
2022/03/31 13:41:37;;;;;;;2.05;1.40;;;;;;;;;;5043229;28;20049;-68
2022/03/31 13:44:04;;;;;;;1.70;1.35;;;;;;;;;;5041638;28;20139;-68
2022/03/31 13:46:30;;;;;;;1.33;1.23;;;;;;;;;;5031196;28;20052;-70
2022/03/31 13:48:57;;;;;;;1.67;1.42;;;;;;;;;;5036910;28;20124;-68
2022/03/31 13:51:23;;;;;;;1.52;1.40;;;;;;;;;;5022284;28;20124;-68
2022/03/31 13:53:53;;;;;;;1.58;1.45;;;;;;;;;;5042235;28;20045;-69
2022/03/31 13:56:20;;;;;;;2.97;1.30;;;;;;;;;;5032244;28;20537;-69
2022/03/31 14:01:34;;;;;;;1.58;1.20;;;;;;;;;;5037642;28;20485;-69
2022/03/31 14:04:02;;;;;;;1.80;1.40;;;;;;;;;;5031719;28;20053;-69
2022/03/31 14:06:29;;;;;;;2.13;1.40;;;;;;;;;;5038444;28;20048;-69
2022/03/31 14:08:59;;;;;;;3.92;1.80;;;;;;;;;;5038222;28;20052;-70
2022/03/31 14:11:30;;;;;;;2.13;1.17;;;;;;;;;;5049798;28;20402;-68
2022/03/31 14:13:57;;;;;;;1.77;1.20;;;;;;;;;;5034460;28;20081;-69
2022/03/31 14:16:28;;;;;;;1.75;1.45;;;;;;;;;;5053500;28;20059;-69
2022/03/31 14:18:55;;;;;;;1.58;1.40;;;;;;;;;;5026090;28;20106;-70
2022/03/31 14:21:22;;;;;;;1.13;0.93;;;;;;;;;;5036004;28;20047;-70
2022/03/31 14:23:48;;;;;;;3.72;1.20;;;;;;;;;;5039456;28;20053;-70
2022/03/31 14:26:15;;;;;;;1.85;1.10;;;;;;;;;;5023856;28;20049;-69
2022/03/31 14:28:43;;;;;;;1.13;1.02;;;;;;;;;;5038231;28;20069;-69
2022/03/31 14:31:11;;;;;;;1.95;1.35;;;;;;;;;;5036171;28;20503;-70
2022/03/31 14:33:57;;;;;;;2.20;1.20;;;;;;;;;;5035652;28;20045;-69
2022/03/31 14:36:25;;;;;;;1.80;1.67;;;;;;;;;;5033505;28;20045;-70
2022/03/31 14:38:53;;;;;;;2.40;1.50;;;;;;;;;;5050831;28;20049;-69
2022/03/31 14:41:19;;;;;;;1.48;1.23;;;;;;;;;;5043452;28;20050;-70
2022/03/31 14:43:53;;;;;;;2.28;1.77;;;;;;;;;;5044562;28;20048;-70
2022/03/31 14:46:20;;;;;;;2.07;1.70;;;;;;;;;;5052229;28;20076;-69
2022/03/31 14:48:47;;;;;;;2.17;1.80;;;;;;;;;;5038975;28;20316;-70
2022/03/31 14:51:14;;;;;;;2.00;1.70;;;;;;;;;;5045412;28;20611;-69
2022/03/31 14:53:41;;;;;;;2.47;1.50;;;;;;;;;;5035688;28;20045;-69
2022/03/31 14:56:08;;;;;;;2.10;1.45;;;;;;;;;;5047993;28;20045;-70
2022/03/31 14:58:35;;;;;;;1.70;1.60;;;;;;;;;;5052017;28;20049;-69